Boston, MA

6:09 AM EST on December 19, 2014 (GMT -0500)
Logan International | Change Station
CLOSE
Current Station
Airport
Location: Boston,
Elevation: 20 ft
Nearby Weather Stations

Elev 20 ft 42.36 °N, 71.01 °W | Updated 15 minutes ago

Mostly Cloudy
Mostly Cloudy
34 °F
Feels Like 27 °F
N
9
Wind Variable Wind from West
Gusts 20 mph

Today
High -- | Low -- °F
--% Chance of Precip.
Yesterday
High -- | Low -- °F
Precip. -- in
7:08 AM 4:13 PM
Waning Crescent, 8% visible
Pressure 29.89 in
Visibility 10.0 miles
Clouds Overcast 5000 ft
Windchill 27 °F
Dew Point 24 °F
Humidity 67%
Rainfall 0.00 in
Snow Depth Not available.
UV 0 out of 12
Pollen .10 out of 12
Air Quality Not available.
Flu Activity Not available.
METAR KBOS 191054Z 28008G17KT 10SM OVC050 01/M04 A2989 RMK AO2 SLP122 T00111044

More Conditions Fewer Conditions

Pressure 29.89 in
Visibility 10.0 miles
Clouds Overcast 5000 ft
Windchill 27 °F
Dew Point 24 °F
Humidity 67%
Rainfall 0.00 in
Snow Depth Not available.
UV 0 out of 12
Pollen .10 out of 12
Air Quality Not available.
Flu Activity Not available.
METAR KBOS 191054Z 28008G17KT 10SM OVC050 01/M04 A2989 RMK AO2 SLP122 T00111044

More Conditions Fewer Conditions

10-Day Weather Forecast

Almanac

Astronomy

Dec. 19, 2014 Rise Set
Actual Time
Civil Twilight
Nautical Twilight
Astronomical Twilight
Moon
Length of Visible Light
Length of Day
Tomorrow will be .
, % of the Moon is Illuminated

Today's Extremes

State Highs State Lows

Community

WunderPhotos

Upload Photos

1,778,965 photos uploaded!

WunderBlogs® & News

Nearby

Air Quality

  Air Quality AQ Index Pollutant
Not available.

Snow Depth

Station Depth Elevation

Earthquake Activity

City Distance Mag. Time & Date
Minimum magnitude displayed is 2.5.

Coastal Water Temperatures

Place Temperature

Nearby Weather Stations